createdAt,value
2023-05-16T00:01:47.185Z,99375.25
2023-05-16T00:06:49.001Z,99382.84
2023-05-16T00:11:51.120Z,99381.69
2023-05-16T00:16:59.461Z,99384.94
2023-05-16T00:22:01.368Z,99392.00
2023-05-16T00:27:04.089Z,99397.63
2023-05-16T00:32:08.718Z,99390.59
2023-05-16T00:37:10.907Z,99399.19
2023-05-16T00:42:12.578Z,99398.66
2023-05-16T00:47:14.757Z,99406.56
2023-05-16T00:52:16.579Z,99407.19
2023-05-16T00:57:19.067Z,99416.72
2023-05-16T01:02:20.874Z,99411.53
2023-05-16T01:07:22.902Z,99418.59
2023-05-16T01:12:46.551Z,99415.69
2023-05-16T01:18:03.510Z,99410.47
2023-05-16T01:23:34.076Z,99428.47
2023-05-16T01:28:36.996Z,99438.84
2023-05-16T01:33:38.932Z,99434.59
2023-05-16T01:38:55.983Z,99438.91
2023-05-16T01:44:03.206Z,99442.03
2023-05-16T01:49:20.505Z,99444.19
2023-05-16T01:54:26.495Z,99447.16
2023-05-16T01:59:28.883Z,99458.28
2023-05-16T02:04:30.566Z,99478.13
2023-05-16T02:09:32.195Z,99472.66
2023-05-16T02:14:34.369Z,99473.72
2023-05-16T02:19:36.294Z,99468.16
2023-05-16T02:24:37.970Z,99474.63
2023-05-16T02:29:39.583Z,99467.78
2023-05-16T02:34:42.913Z,99469.75
2023-05-16T02:39:44.561Z,99474.03
2023-05-16T02:44:46.322Z,99484.69
2023-05-16T02:49:47.961Z,99489.38
2023-05-16T02:55:09.402Z,99485.75
2023-05-16T03:00:12.047Z,99489.66
2023-05-16T03:05:13.678Z,99496.78
2023-05-16T03:10:15.559Z,99514.88
2023-05-16T03:15:17.408Z,99517.16
2023-05-16T03:20:19.241Z,99530.13
2023-05-16T03:25:21.159Z,99530.00
2023-05-16T03:30:23.121Z,99538.75
2023-05-16T03:35:25.217Z,99545.16
2023-05-16T03:40:46.682Z,99556.72
2023-05-16T03:45:48.388Z,99560.97
2023-05-16T03:50:51.425Z,99564.34
2023-05-16T03:55:53.112Z,99577.41
2023-05-16T04:00:54.987Z,99571.72
2023-05-16T04:05:57.386Z,99579.75
2023-05-16T04:10:59.079Z,99592.78
2023-05-16T04:16:01.093Z,99609.72
2023-05-16T04:21:02.964Z,99606.38
2023-05-16T04:26:04.706Z,99613.88
2023-05-16T04:31:06.455Z,99617.09
2023-05-16T04:36:08.462Z,99628.25
2023-05-16T04:41:10.095Z,99640.53
2023-05-16T04:46:11.772Z,99648.06
2023-05-16T04:51:13.399Z,99656.94
2023-05-16T04:56:15.075Z,99642.75
2023-05-16T05:01:16.880Z,99642.63
2023-05-16T05:06:18.511Z,99651.81
2023-05-16T05:11:20.322Z,99657.25
2023-05-16T05:16:22.152Z,99675.38
2023-05-16T05:21:25.326Z,99677.22
2023-05-16T05:26:27.896Z,99681.94
2023-05-16T05:31:29.682Z,99691.06
2023-05-16T05:36:35.565Z,99698.28
2023-05-16T05:41:40.333Z,99709.50
2023-05-16T05:46:45.616Z,99704.19
2023-05-16T05:51:56.333Z,99715.06
2023-05-16T05:56:58.690Z,99722.97
2023-05-16T06:02:03.772Z,99718.13
2023-05-16T06:07:05.956Z,99724.34
2023-05-16T06:12:07.802Z,99740.47
2023-05-16T06:17:19.596Z,99750.59
2023-05-16T06:22:21.397Z,99750.44
2023-05-16T06:28:00.354Z,99749.78
2023-05-16T06:33:02.060Z,99762.50
2023-05-16T06:38:03.702Z,99753.25
2023-05-16T06:43:05.359Z,99760.97
2023-05-16T06:48:08.163Z,99762.94
2023-05-16T06:53:12.053Z,99766.63
2023-05-16T06:58:13.993Z,99766.81
2023-05-16T07:03:15.897Z,99766.09
2023-05-16T07:08:17.549Z,99771.19
2023-05-16T07:13:19.235Z,99777.00
2023-05-16T07:18:21.004Z,99780.53
2023-05-16T07:23:22.654Z,99781.63
2023-05-16T07:28:24.435Z,99785.00
2023-05-16T07:33:27.420Z,99788.75
2023-05-16T07:38:29.211Z,99795.22
2023-05-16T07:43:31.191Z,99789.56
2023-05-16T07:48:32.874Z,99796.28
2023-05-16T07:53:34.689Z,99801.72
2023-05-16T07:58:36.517Z,99805.88
2023-05-16T08:03:38.521Z,99818.03
2023-05-16T08:08:40.336Z,99819.16
2023-05-16T08:13:42.248Z,99822.47
2023-05-16T08:18:46.292Z,99829.81
2023-05-16T08:23:48.021Z,99844.56
2023-05-16T08:28:49.951Z,99845.75
2023-05-16T08:33:51.656Z,99844.75
2023-05-16T08:38:53.305Z,99854.75
2023-05-16T08:43:55.188Z,99863.28
2023-05-16T08:49:00.209Z,99871.00
2023-05-16T08:54:12.036Z,99878.16
2023-05-16T08:59:13.971Z,99874.75
2023-05-16T09:04:16.394Z,99876.31
2023-05-16T09:09:18.123Z,99874.44
2023-05-16T09:14:19.721Z,99879.44
2023-05-16T09:19:23.377Z,99886.28
2023-05-16T09:24:26.333Z,99885.97
2023-05-16T09:29:28.165Z,99891.28
2023-05-16T09:34:30.000Z,99898.69
2023-05-16T09:39:31.634Z,99912.44
2023-05-16T09:44:33.726Z,99905.91
2023-05-16T09:49:37.713Z,99914.13
2023-05-16T09:54:39.531Z,99916.53
2023-05-16T09:59:41.262Z,99927.47
2023-05-16T10:04:42.956Z,99931.75
2023-05-16T10:09:46.262Z,99926.47
2023-05-16T10:14:50.398Z,99926.78
2023-05-16T10:19:54.251Z,99918.25
2023-05-16T10:25:08.201Z,99925.44
2023-05-16T10:30:10.928Z,99934.94
2023-05-16T10:35:12.874Z,99926.38
2023-05-16T10:40:16.829Z,99918.94
2023-05-16T10:45:20.091Z,99920.63
2023-05-16T10:50:34.910Z,99928.94
2023-05-16T10:55:36.641Z,99916.97
2023-05-16T11:00:40.323Z,99923.25
2023-05-16T11:05:42.199Z,99914.66
2023-05-16T11:10:43.881Z,99916.22
2023-05-16T11:15:45.602Z,99921.34
2023-05-16T11:20:52.896Z,99926.16
2023-05-16T11:25:56.072Z,99920.50
2023-05-16T11:31:00.079Z,99913.13
2023-05-16T11:41:17.621Z,99891.06
2023-05-16T11:46:19.521Z,99884.28
2023-05-16T11:51:21.698Z,99888.38
2023-05-16T11:56:23.771Z,99887.09
2023-05-16T12:01:26.084Z,99891.88
2023-05-16T12:06:31.143Z,99887.41
2023-05-16T12:11:32.994Z,99888.47
2023-05-16T12:16:37.180Z,99888.66
2023-05-16T12:21:39.184Z,99891.78
2023-05-16T12:26:42.497Z,99904.41
2023-05-16T12:31:44.213Z,99901.38
2023-05-16T12:36:45.960Z,99895.50
2023-05-16T12:41:49.168Z,99908.31
2023-05-16T12:46:51.977Z,99913.38
2023-05-16T12:51:57.515Z,99919.94
2023-05-16T12:56:59.434Z,99913.31
2023-05-16T13:02:01.418Z,99923.75
2023-05-16T13:07:04.658Z,99928.69
2023-05-16T13:12:06.692Z,99942.97
2023-05-16T13:17:08.384Z,99947.13
2023-05-16T13:22:10.411Z,99943.50
2023-05-16T13:27:16.132Z,99950.88
2023-05-16T13:32:18.980Z,99953.91
2023-05-16T13:37:26.300Z,99950.97
2023-05-16T13:42:35.894Z,99952.97
2023-05-16T13:47:56.724Z,99955.38
2023-05-16T13:52:58.525Z,99946.19
2023-05-16T13:58:00.331Z,99956.81
2023-05-16T14:03:09.138Z,99957.16
2023-05-16T14:08:18.879Z,99950.53
2023-05-16T14:13:43.805Z,99937.69
2023-05-16T14:25:29.231Z,99944.47
2023-05-16T14:30:31.629Z,99948.28
2023-05-16T14:35:33.375Z,99948.97
2023-05-16T14:40:35.047Z,99956.84
2023-05-16T14:45:38.214Z,99944.09
2023-05-16T14:50:39.890Z,99962.09
2023-05-16T14:55:41.684Z,99968.97
2023-05-16T15:00:43.554Z,99981.63
2023-05-16T15:05:45.677Z,99988.94
2023-05-16T15:10:47.350Z,99986.06
2023-05-16T15:15:49.100Z,99991.50
2023-05-16T15:20:53.097Z,99996.03
2023-05-16T15:25:54.781Z,99985.09
2023-05-16T15:30:56.473Z,99977.59
2023-05-16T15:35:58.379Z,99976.28
2023-05-16T15:41:16.497Z,99980.47
2023-05-16T15:46:23.028Z,99972.44
2023-05-16T15:51:25.235Z,99971.19
2023-05-16T15:56:27.425Z,99973.66
2023-05-16T16:01:29.678Z,99979.97
2023-05-16T16:06:31.912Z,99967.06
2023-05-16T16:11:33.890Z,99954.72
2023-05-16T16:16:37.345Z,99954.16
2023-05-16T16:21:39.275Z,99950.72
2023-05-16T16:26:43.127Z,99956.72
2023-05-16T16:31:45.398Z,99959.41
2023-05-16T16:36:47.780Z,99956.84
2023-05-16T16:41:49.999Z,99961.59
2023-05-16T16:46:52.424Z,99962.63
2023-05-16T16:51:54.313Z,99965.63
2023-05-16T16:56:56.541Z,99974.34
2023-05-16T17:01:58.600Z,99977.31
2023-05-16T17:07:01.335Z,99978.84
2023-05-16T17:12:08.331Z,99987.16
2023-05-16T17:17:10.201Z,99996.16
2023-05-16T17:22:12.194Z,99995.50
2023-05-16T17:27:14.146Z,100000.88
2023-05-16T17:32:17.446Z,99992.72
2023-05-16T17:37:19.784Z,99987.91
2023-05-16T17:42:21.941Z,100005.81
2023-05-16T17:47:24.463Z,99993.47
2023-05-16T17:52:26.758Z,99993.81
2023-05-16T17:57:28.682Z,99985.94
2023-05-16T18:02:30.475Z,99998.34
2023-05-16T18:07:32.688Z,100000.66
2023-05-16T18:12:36.257Z,99997.03
2023-05-16T18:17:38.146Z,99993.75
2023-05-16T18:22:40.422Z,100007.56
2023-05-16T18:27:42.144Z,100012.44
2023-05-16T18:32:44.008Z,100009.22
2023-05-16T18:37:45.837Z,100012.81
2023-05-16T18:42:47.735Z,100005.38
2023-05-16T18:47:49.581Z,100024.50
2023-05-16T18:52:52.482Z,100032.53
2023-05-16T18:57:54.558Z,100032.97
2023-05-16T19:02:56.328Z,100044.34
2023-05-16T19:07:58.083Z,100047.38
2023-05-16T19:13:06.942Z,100063.31
2023-05-16T19:18:08.875Z,100063.91
2023-05-16T19:23:10.630Z,100061.75
2023-05-16T19:28:12.458Z,100061.66
2023-05-16T19:33:15.049Z,100069.25
2023-05-16T19:38:19.667Z,100068.06
2023-05-16T19:43:21.479Z,100071.50
2023-05-16T19:48:23.425Z,100079.72
2023-05-16T19:53:25.771Z,100087.91
2023-05-16T19:58:27.607Z,100086.41
2023-05-16T20:03:29.539Z,100103.22
2023-05-16T20:08:31.663Z,100107.13
2023-05-16T20:13:33.834Z,100096.72
2023-05-16T20:18:51.777Z,100093.88
2023-05-16T20:24:00.510Z,100100.31
2023-05-16T20:29:02.558Z,100104.31
2023-05-16T20:34:04.554Z,100101.84
2023-05-16T20:39:07.543Z,100105.97
2023-05-16T20:44:09.284Z,100113.38
2023-05-16T20:49:11.242Z,100112.31
2023-05-16T20:54:13.323Z,100118.00
2023-05-16T20:59:15.061Z,100120.38
2023-05-16T21:04:17.201Z,100118.22
2023-05-16T21:09:18.964Z,100129.22
2023-05-16T21:14:20.664Z,100130.91
2023-05-16T21:19:22.463Z,100140.91
2023-05-16T21:24:24.231Z,100144.03
2023-05-16T21:29:25.959Z,100143.91
2023-05-16T21:34:27.797Z,100153.44
2023-05-16T21:39:29.503Z,100151.31
2023-05-16T21:44:31.709Z,100152.69
2023-05-16T21:49:34.654Z,100154.69
2023-05-16T21:54:36.386Z,100155.91
2023-05-16T21:59:38.212Z,100163.56
2023-05-16T22:04:40.051Z,100171.97
2023-05-16T22:09:42.490Z,100178.50
2023-05-16T22:14:44.206Z,100176.19
2023-05-16T22:19:46.188Z,100180.16
2023-05-16T22:24:48.113Z,100180.81
2023-05-16T22:29:49.794Z,100187.94
2023-05-16T22:34:52.773Z,100196.13
2023-05-16T22:39:56.230Z,100205.31
2023-05-16T22:44:57.868Z,100210.56
2023-05-16T22:49:59.738Z,100202.66
2023-05-16T22:55:02.355Z,100212.50
2023-05-16T23:00:05.327Z,100214.63
2023-05-16T23:05:07.682Z,100216.03
2023-05-16T23:10:09.545Z,100237.03
2023-05-16T23:15:11.776Z,100240.03
2023-05-16T23:20:13.573Z,100240.78
2023-05-16T23:25:15.279Z,100236.97
2023-05-16T23:30:17.005Z,100231.97
2023-05-16T23:35:18.776Z,100243.91
2023-05-16T23:40:20.505Z,100257.50
2023-05-16T23:45:22.293Z,100251.09
2023-05-16T23:50:23.971Z,100259.13
2023-05-16T23:55:25.821Z,100257.06
